DAL945 KSEA-KLAS
Flight info
| Callsign | DAL945 |
|---|---|
| Flight time | 1h 56m |
| Altitude | 37000 |
| Route | SUMMA2 LKV J5 FMG J92 OAL TQILA COKTL4 |
| Aircraft | A320/M-SDE3FGHIRWY/LB1 |
Departure
| Time | 2026-05-05 20:10 |
|---|---|
| Airport | Seattle–Tacoma International Airport (KSEA) |
Arrival
| Time | 2026-05-05 22:07 |
|---|---|
| Airport | Harry Reid International Airport (KLAS) |
| Time | Latitude | Longitude | Altitude | Speed | Heading |
|---|---|---|---|---|---|
| 2026-05-05 19:06 | 47.43974 | -122.29861 | 424 ft | 0 kts | 46° |
| 2026-05-05 19:47 | 47.43963 | -122.29878 | 425 ft | 3 kts | 43° |
| 2026-05-05 19:47 | 47.43948 | -122.29899 | 418 ft | 2 kts | 44° |
| 2026-05-05 19:48 | 47.43931 | -122.29920 | 418 ft | 3 kts | 28° |
| 2026-05-05 19:48 | 47.43910 | -122.29931 | 422 ft | 3 kts | 358° |
| 2026-05-05 19:48 | 47.43899 | -122.29930 | 423 ft | 0 kts | 348° |
| 2026-05-05 19:51 | 47.43906 | -122.29932 | 420 ft | 6 kts | 345° |
| 2026-05-05 19:51 | 47.43942 | -122.29961 | 427 ft | 6 kts | 319° |
| 2026-05-05 19:52 | 47.43978 | -122.30015 | 422 ft | 7 kts | 315° |
| 2026-05-05 19:52 | 47.44009 | -122.30062 | 418 ft | 6 kts | 314° |
| 2026-05-05 19:52 | 47.44034 | -122.30127 | 432 ft | 9 kts | 283° |
| 2026-05-05 19:52 | 47.44022 | -122.30217 | 432 ft | 9 kts | 243° |
| 2026-05-05 19:53 | 47.43987 | -122.30303 | 423 ft | 10 kts | 247° |
| 2026-05-05 19:53 | 47.43975 | -122.30414 | 432 ft | 12 kts | 268° |
| 2026-05-05 19:53 | 47.43974 | -122.30539 | 432 ft | 13 kts | 268° |
| 2026-05-05 19:53 | 47.44027 | -122.30627 | 426 ft | 12 kts | 349° |
| 2026-05-05 19:54 | 47.44105 | -122.30629 | 424 ft | 10 kts | 2° |
| 2026-05-05 19:54 | 47.44194 | -122.30626 | 425 ft | 15 kts | 0° |
| 2026-05-05 19:54 | 47.44275 | -122.30626 | 420 ft | 13 kts | 360° |
| 2026-05-05 19:55 | 47.44320 | -122.30625 | 428 ft | 12 kts | 0° |
| 2026-05-05 19:55 | 47.44398 | -122.30626 | 426 ft | 11 kts | 1° |
| 2026-05-05 19:55 | 47.44468 | -122.30624 | 426 ft | 10 kts | 1° |
| 2026-05-05 19:56 | 47.44532 | -122.30622 | 420 ft | 9 kts | 1° |
| 2026-05-05 19:56 | 47.44587 | -122.30621 | 423 ft | 7 kts | 1° |
| 2026-05-05 19:56 | 47.44630 | -122.30620 | 427 ft | 5 kts | 1° |
| 2026-05-05 19:56 | 47.44662 | -122.30619 | 424 ft | 4 kts | 1° |
| 2026-05-05 19:57 | 47.44684 | -122.30620 | 427 ft | 3 kts | 358° |
| 2026-05-05 19:57 | 47.44690 | -122.30620 | 426 ft | 2 kts | 358° |
| 2026-05-05 19:58 | 47.44699 | -122.30619 | 424 ft | 1 kts | 2° |
| 2026-05-05 19:58 | 47.44707 | -122.30618 | 422 ft | 5 kts | 2° |
| 2026-05-05 19:58 | 47.44711 | -122.30618 | 426 ft | 0 kts | 2° |
| 2026-05-05 20:00 | 47.44759 | -122.30619 | 426 ft | 12 kts | 352° |
| 2026-05-05 20:00 | 47.44839 | -122.30623 | 427 ft | 11 kts | 1° |
| 2026-05-05 20:00 | 47.44866 | -122.30622 | 427 ft | 10 kts | 1° |
| 2026-05-05 20:01 | 47.44901 | -122.30620 | 424 ft | 9 kts | 7° |
| 2026-05-05 20:02 | 47.44960 | -122.30614 | 424 ft | 12 kts | 359° |
| 2026-05-05 20:02 | 47.45071 | -122.30619 | 419 ft | 16 kts | 359° |
| 2026-05-05 20:02 | 47.45174 | -122.30620 | 425 ft | 14 kts | 359° |
| 2026-05-05 20:02 | 47.45262 | -122.30619 | 427 ft | 11 kts | 360° |
| 2026-05-05 20:03 | 47.45335 | -122.30618 | 427 ft | 11 kts | 0° |
| 2026-05-05 20:03 | 47.45437 | -122.30618 | 427 ft | 15 kts | 0° |
| 2026-05-05 20:03 | 47.45503 | -122.30618 | 426 ft | 14 kts | 359° |
| 2026-05-05 20:03 | 47.45620 | -122.30616 | 425 ft | 11 kts | 360° |
| 2026-05-05 20:04 | 47.45670 | -122.30616 | 422 ft | 10 kts | 360° |
| 2026-05-05 20:04 | 47.45763 | -122.30619 | 420 ft | 9 kts | 359° |
| 2026-05-05 20:04 | 47.45825 | -122.30614 | 423 ft | 8 kts | 2° |
| 2026-05-05 20:04 | 47.45877 | -122.30611 | 426 ft | 7 kts | 1° |
| 2026-05-05 20:05 | 47.45919 | -122.30610 | 423 ft | 5 kts | 1° |
| 2026-05-05 20:05 | 47.45942 | -122.30609 | 423 ft | 4 kts | 0° |
| 2026-05-05 20:05 | 47.45965 | -122.30609 | 424 ft | 3 kts | 360° |
| 2026-05-05 20:05 | 47.45977 | -122.30609 | 426 ft | 1 kts | 359° |
| 2026-05-05 20:06 | 47.45980 | -122.30609 | 426 ft | 0 kts | 359° |
| 2026-05-05 20:06 | 47.45992 | -122.30610 | 425 ft | 9 kts | 359° |
| 2026-05-05 20:06 | 47.46071 | -122.30613 | 424 ft | 11 kts | 358° |
| 2026-05-05 20:07 | 47.46143 | -122.30612 | 421 ft | 10 kts | 0° |
| 2026-05-05 20:07 | 47.46206 | -122.30612 | 427 ft | 8 kts | 359° |
| 2026-05-05 20:07 | 47.46258 | -122.30610 | 426 ft | 6 kts | 1° |
| 2026-05-05 20:07 | 47.46297 | -122.30610 | 425 ft | 7 kts | 360° |
| 2026-05-05 20:08 | 47.46341 | -122.30615 | 426 ft | 5 kts | 345° |
| 2026-05-05 20:08 | 47.46367 | -122.30647 | 420 ft | 5 kts | 304° |
| 2026-05-05 20:08 | 47.46371 | -122.30703 | 427 ft | 6 kts | 258° |
| 2026-05-05 20:08 | 47.46336 | -122.30756 | 424 ft | 9 kts | 208° |
| 2026-05-05 20:09 | 47.46270 | -122.30778 | 422 ft | 10 kts | 182° |
| 2026-05-05 20:09 | 47.46192 | -122.30778 | 424 ft | 12 kts | 179° |
| 2026-05-05 20:09 | 47.46168 | -122.30778 | 424 ft | 0 kts | 180° |
| 2026-05-05 20:09 | 47.46152 | -122.30778 | 421 ft | 19 kts | 180° |
| 2026-05-05 20:10 | 47.45755 | -122.30783 | 419 ft | 91 kts | 180° |
| 2026-05-05 20:10 | 47.44927 | -122.30790 | 421 ft | 145 kts | 180° |
| 2026-05-05 20:10 | 47.43817 | -122.30814 | 660 ft | 166 kts | 184° |
| 2026-05-05 20:10 | 47.42665 | -122.30851 | 1335 ft | 167 kts | 183° |
| 2026-05-05 20:11 | 47.41502 | -122.30856 | 2029 ft | 167 kts | 182° |
| 2026-05-05 20:11 | 47.40295 | -122.30845 | 2447 ft | 183 kts | 182° |
| 2026-05-05 20:11 | 47.38941 | -122.30843 | 2696 ft | 206 kts | 182° |
| 2026-05-05 20:11 | 47.37419 | -122.30846 | 2991 ft | 231 kts | 181° |
| 2026-05-05 20:12 | 47.35729 | -122.30853 | 3371 ft | 254 kts | 181° |
| 2026-05-05 20:12 | 47.33917 | -122.30866 | 3982 ft | 266 kts | 180° |
| 2026-05-05 20:12 | 47.32032 | -122.30884 | 4677 ft | 275 kts | 181° |
| 2026-05-05 20:12 | 47.30095 | -122.30907 | 5419 ft | 281 kts | 181° |
| 2026-05-05 20:13 | 47.28130 | -122.30932 | 6252 ft | 284 kts | 180° |
| 2026-05-05 20:13 | 47.26143 | -122.30959 | 7001 ft | 288 kts | 180° |
| 2026-05-05 20:13 | 47.24140 | -122.30761 | 7754 ft | 290 kts | 163° |
| 2026-05-05 20:13 | 47.22336 | -122.29450 | 8556 ft | 291 kts | 148° |
| 2026-05-05 20:14 | 47.20540 | -122.28125 | 9320 ft | 295 kts | 157° |
| 2026-05-05 20:14 | 47.18600 | -122.27103 | 10107 ft | 297 kts | 162° |
| 2026-05-05 20:14 | 47.16609 | -122.26207 | 10786 ft | 302 kts | 162° |
| 2026-05-05 20:14 | 47.14516 | -122.25285 | 10999 ft | 326 kts | 162° |
| 2026-05-05 20:15 | 47.12286 | -122.24270 | 11281 ft | 343 kts | 161° |
| 2026-05-05 20:15 | 47.09992 | -122.23178 | 11881 ft | 350 kts | 161° |
| 2026-05-05 20:15 | 47.07672 | -122.22028 | 12514 ft | 355 kts | 160° |
| 2026-05-05 20:15 | 47.05320 | -122.20835 | 13157 ft | 360 kts | 159° |
| 2026-05-05 20:16 | 47.02942 | -122.19617 | 13774 ft | 365 kts | 159° |
| 2026-05-05 20:16 | 47.00528 | -122.18377 | 14329 ft | 370 kts | 159° |
| 2026-05-05 20:16 | 46.98082 | -122.17121 | 14884 ft | 374 kts | 159° |
| 2026-05-05 20:16 | 46.95609 | -122.15861 | 15448 ft | 378 kts | 159° |
| 2026-05-05 20:17 | 46.93108 | -122.14596 | 15997 ft | 382 kts | 159° |
| 2026-05-05 20:17 | 46.90580 | -122.13320 | 16550 ft | 386 kts | 159° |
| 2026-05-05 20:17 | 46.88029 | -122.12029 | 17108 ft | 390 kts | 159° |
| 2026-05-05 20:17 | 46.85451 | -122.10727 | 17651 ft | 394 kts | 158° |
| 2026-05-05 20:18 | 46.82845 | -122.09411 | 18162 ft | 399 kts | 158° |
| 2026-05-05 20:18 | 46.80245 | -122.08098 | 18648 ft | 403 kts | 158° |
| 2026-05-05 20:18 | 46.77584 | -122.06755 | 19122 ft | 406 kts | 158° |
| 2026-05-05 20:18 | 46.74899 | -122.05403 | 19577 ft | 410 kts | 158° |
| 2026-05-05 20:19 | 46.72191 | -122.04040 | 20038 ft | 414 kts | 158° |
| 2026-05-05 20:19 | 46.69423 | -122.02649 | 20527 ft | 417 kts | 158° |
| 2026-05-05 20:19 | 46.66703 | -122.01286 | 20971 ft | 421 kts | 159° |
| 2026-05-05 20:19 | 46.63932 | -121.99901 | 21477 ft | 423 kts | 159° |
| 2026-05-05 20:20 | 46.61130 | -121.98530 | 21975 ft | 426 kts | 160° |
| 2026-05-05 20:20 | 46.58282 | -121.97291 | 22465 ft | 430 kts | 162° |
| 2026-05-05 20:20 | 46.55380 | -121.96158 | 22907 ft | 434 kts | 163° |
| 2026-05-05 20:20 | 46.52439 | -121.95082 | 23328 ft | 437 kts | 164° |
| 2026-05-05 20:21 | 46.49475 | -121.94020 | 23734 ft | 441 kts | 164° |
| 2026-05-05 20:21 | 46.46492 | -121.92937 | 24110 ft | 443 kts | 164° |
| 2026-05-05 20:21 | 46.43500 | -121.91818 | 24489 ft | 445 kts | 163° |
| 2026-05-05 20:21 | 46.40498 | -121.90671 | 24852 ft | 447 kts | 163° |
| 2026-05-05 20:22 | 46.37484 | -121.89507 | 25238 ft | 449 kts | 163° |
| 2026-05-05 20:22 | 46.34459 | -121.88337 | 25593 ft | 451 kts | 163° |
| 2026-05-05 20:22 | 46.31422 | -121.87165 | 25958 ft | 453 kts | 163° |
| 2026-05-05 20:22 | 46.28370 | -121.85992 | 26286 ft | 455 kts | 163° |
| 2026-05-05 20:23 | 46.25301 | -121.84817 | 26623 ft | 457 kts | 164° |
| 2026-05-05 20:23 | 46.22219 | -121.83640 | 26935 ft | 459 kts | 163° |
| 2026-05-05 20:23 | 46.19121 | -121.82460 | 27261 ft | 461 kts | 163° |
| 2026-05-05 20:23 | 46.16009 | -121.81277 | 27587 ft | 463 kts | 164° |
| 2026-05-05 20:24 | 46.12883 | -121.80094 | 27916 ft | 465 kts | 164° |
| 2026-05-05 20:24 | 46.09746 | -121.78912 | 28268 ft | 466 kts | 164° |
| 2026-05-05 20:24 | 46.06603 | -121.77728 | 28601 ft | 468 kts | 164° |
| 2026-05-05 20:24 | 46.03451 | -121.76535 | 28919 ft | 469 kts | 163° |
| 2026-05-05 20:25 | 46.00330 | -121.75351 | 29191 ft | 472 kts | 163° |
| 2026-05-05 20:25 | 45.97149 | -121.74145 | 29454 ft | 474 kts | 163° |
| 2026-05-05 20:25 | 45.93954 | -121.72938 | 29730 ft | 476 kts | 164° |
| 2026-05-05 20:25 | 45.90747 | -121.71730 | 30010 ft | 477 kts | 164° |
| 2026-05-05 20:26 | 45.87528 | -121.70519 | 30243 ft | 479 kts | 164° |
| 2026-05-05 20:26 | 45.84297 | -121.69304 | 30434 ft | 481 kts | 164° |
| 2026-05-05 20:26 | 45.81052 | -121.68086 | 30626 ft | 483 kts | 164° |
| 2026-05-05 20:26 | 45.77785 | -121.66863 | 30742 ft | 487 kts | 164° |
| 2026-05-05 20:27 | 45.74495 | -121.65632 | 30870 ft | 490 kts | 164° |
| 2026-05-05 20:27 | 45.71189 | -121.64397 | 31065 ft | 491 kts | 164° |
| 2026-05-05 20:27 | 45.67879 | -121.63161 | 31303 ft | 492 kts | 164° |
| 2026-05-05 20:27 | 45.64567 | -121.61924 | 31530 ft | 492 kts | 164° |
| 2026-05-05 20:28 | 45.61253 | -121.60688 | 31766 ft | 492 kts | 163° |
| 2026-05-05 20:28 | 45.57935 | -121.59453 | 31954 ft | 493 kts | 163° |
| 2026-05-05 20:28 | 45.54618 | -121.58220 | 32209 ft | 492 kts | 163° |
| 2026-05-05 20:28 | 45.51306 | -121.56992 | 32476 ft | 492 kts | 163° |
| 2026-05-05 20:29 | 45.47991 | -121.55764 | 32721 ft | 492 kts | 163° |
| 2026-05-05 20:29 | 45.44678 | -121.54536 | 32986 ft | 492 kts | 163° |
| 2026-05-05 20:29 | 45.41414 | -121.53328 | 33237 ft | 492 kts | 163° |
| 2026-05-05 20:29 | 45.38101 | -121.52102 | 33469 ft | 492 kts | 163° |
| 2026-05-05 20:30 | 45.34784 | -121.50875 | 33712 ft | 492 kts | 163° |
| 2026-05-05 20:30 | 45.31469 | -121.49652 | 33965 ft | 492 kts | 163° |
| 2026-05-05 20:30 | 45.28152 | -121.48432 | 34178 ft | 492 kts | 163° |
| 2026-05-05 20:30 | 45.24838 | -121.47216 | 34388 ft | 492 kts | 163° |
| 2026-05-05 20:31 | 45.21523 | -121.46000 | 34590 ft | 492 kts | 163° |
| 2026-05-05 20:31 | 45.18208 | -121.44788 | 34794 ft | 492 kts | 163° |
| 2026-05-05 20:31 | 45.14894 | -121.43574 | 34974 ft | 492 kts | 163° |
| 2026-05-05 20:31 | 45.11580 | -121.42358 | 35159 ft | 492 kts | 163° |
| 2026-05-05 20:32 | 45.08268 | -121.41144 | 35342 ft | 492 kts | 163° |
| 2026-05-05 20:32 | 45.04955 | -121.39934 | 35504 ft | 492 kts | 163° |
| 2026-05-05 20:32 | 45.01698 | -121.38749 | 36269 ft | 474 kts | 163° |
| 2026-05-05 20:32 | 44.98524 | -121.37597 | 36708 ft | 469 kts | 162° |
| 2026-05-05 20:33 | 44.95367 | -121.36450 | 36914 ft | 469 kts | 163° |
| 2026-05-05 20:33 | 44.89014 | -121.34138 | 36949 ft | 475 kts | 163° |
| 2026-05-05 20:34 | 44.82602 | -121.31807 | 36951 ft | 483 kts | 163° |
| 2026-05-05 20:34 | 44.76055 | -121.29438 | 36946 ft | 488 kts | 163° |
| 2026-05-05 20:35 | 44.69466 | -121.27068 | 36944 ft | 489 kts | 163° |
| 2026-05-05 20:35 | 44.62868 | -121.24699 | 36945 ft | 489 kts | 163° |
| 2026-05-05 20:36 | 44.56269 | -121.22324 | 36954 ft | 490 kts | 162° |
| 2026-05-05 20:36 | 44.49664 | -121.19958 | 36947 ft | 490 kts | 163° |
| 2026-05-05 20:37 | 44.43056 | -121.17602 | 36943 ft | 490 kts | 162° |
| 2026-05-05 20:37 | 44.36448 | -121.15240 | 36945 ft | 491 kts | 162° |
| 2026-05-05 20:38 | 44.29830 | -121.12890 | 36947 ft | 491 kts | 163° |
| 2026-05-05 20:38 | 44.23210 | -121.10545 | 37015 ft | 491 kts | 162° |
| 2026-05-05 20:39 | 44.16633 | -121.08213 | 37020 ft | 491 kts | 162° |
| 2026-05-05 20:39 | 44.09965 | -121.05860 | 37015 ft | 491 kts | 162° |
| 2026-05-05 20:40 | 44.03339 | -121.03528 | 36989 ft | 491 kts | 163° |
| 2026-05-05 20:40 | 43.96765 | -121.01218 | 36997 ft | 490 kts | 162° |
| 2026-05-05 20:41 | 43.90152 | -120.98902 | 36987 ft | 490 kts | 162° |
| 2026-05-05 20:41 | 43.83548 | -120.96583 | 36973 ft | 490 kts | 162° |
| 2026-05-05 20:42 | 43.76943 | -120.94275 | 36963 ft | 489 kts | 162° |
| 2026-05-05 20:42 | 43.70343 | -120.91979 | 36963 ft | 489 kts | 162° |
| 2026-05-05 20:43 | 43.63746 | -120.89690 | 36957 ft | 489 kts | 162° |
| 2026-05-05 20:43 | 43.57155 | -120.87411 | 36959 ft | 488 kts | 162° |
| 2026-05-05 20:44 | 43.50572 | -120.85128 | 36936 ft | 487 kts | 162° |
| 2026-05-05 20:44 | 43.43997 | -120.82855 | 36962 ft | 487 kts | 162° |
| 2026-05-05 20:45 | 43.34181 | -120.79474 | 36952 ft | 487 kts | 162° |
| 2026-05-05 20:45 | 43.27615 | -120.77219 | 36945 ft | 487 kts | 162° |
| 2026-05-05 20:46 | 43.21045 | -120.74966 | 36954 ft | 487 kts | 162° |
| 2026-05-05 20:46 | 43.14475 | -120.72714 | 36948 ft | 487 kts | 162° |
| 2026-05-05 20:47 | 43.07902 | -120.70476 | 36938 ft | 487 kts | 162° |
| 2026-05-05 20:47 | 43.01326 | -120.68240 | 36926 ft | 487 kts | 162° |
| 2026-05-05 20:48 | 42.94791 | -120.66029 | 36933 ft | 487 kts | 162° |
| 2026-05-05 20:48 | 42.88210 | -120.63814 | 36931 ft | 487 kts | 162° |
| 2026-05-05 20:49 | 42.81629 | -120.61591 | 36952 ft | 487 kts | 162° |
| 2026-05-05 20:49 | 42.75046 | -120.59361 | 36939 ft | 488 kts | 162° |
| 2026-05-05 20:50 | 42.68454 | -120.57133 | 36948 ft | 488 kts | 162° |
| 2026-05-05 20:50 | 42.61860 | -120.54929 | 36946 ft | 488 kts | 162° |
| 2026-05-05 20:51 | 42.55271 | -120.52729 | 36940 ft | 488 kts | 162° |
| 2026-05-05 20:51 | 42.48685 | -120.50521 | 36935 ft | 487 kts | 162° |
| 2026-05-05 20:52 | 42.42071 | -120.48454 | 36944 ft | 488 kts | 163° |
| 2026-05-05 20:52 | 42.35428 | -120.46517 | 36936 ft | 488 kts | 164° |
| 2026-05-05 20:53 | 42.28832 | -120.44594 | 36948 ft | 488 kts | 163° |
| 2026-05-05 20:53 | 42.22205 | -120.42625 | 36940 ft | 488 kts | 163° |
| 2026-05-05 20:54 | 42.15581 | -120.40641 | 37060 ft | 487 kts | 163° |
| 2026-05-05 20:54 | 42.08958 | -120.38660 | 37057 ft | 488 kts | 163° |
| 2026-05-05 20:55 | 42.02336 | -120.36684 | 37029 ft | 487 kts | 163° |
| 2026-05-05 20:55 | 41.95710 | -120.34725 | 36995 ft | 487 kts | 163° |
| 2026-05-05 20:56 | 41.89084 | -120.32758 | 36968 ft | 488 kts | 163° |
| 2026-05-05 20:56 | 41.82453 | -120.30803 | 36932 ft | 488 kts | 163° |
| 2026-05-05 20:57 | 41.75861 | -120.28878 | 36923 ft | 488 kts | 163° |
| 2026-05-05 20:57 | 41.69231 | -120.26935 | 36916 ft | 488 kts | 163° |
| 2026-05-05 20:58 | 41.62595 | -120.24985 | 36906 ft | 488 kts | 162° |
| 2026-05-05 20:58 | 41.55961 | -120.23042 | 36934 ft | 488 kts | 162° |
| 2026-05-05 20:59 | 41.49330 | -120.21111 | 36920 ft | 488 kts | 162° |
| 2026-05-05 20:59 | 41.42700 | -120.19186 | 36944 ft | 488 kts | 162° |
| 2026-05-05 21:00 | 41.36070 | -120.17260 | 36934 ft | 488 kts | 162° |
| 2026-05-05 21:00 | 41.29440 | -120.15330 | 36915 ft | 488 kts | 162° |
| 2026-05-05 21:01 | 41.22807 | -120.13407 | 36931 ft | 488 kts | 162° |
| 2026-05-05 21:01 | 41.16169 | -120.11491 | 36924 ft | 488 kts | 162° |
| 2026-05-05 21:02 | 41.09535 | -120.09581 | 36927 ft | 488 kts | 162° |
| 2026-05-05 21:02 | 41.02909 | -120.07666 | 36930 ft | 487 kts | 162° |
| 2026-05-05 21:03 | 40.96279 | -120.05761 | 36921 ft | 488 kts | 162° |
| 2026-05-05 21:03 | 40.89647 | -120.03864 | 36908 ft | 487 kts | 162° |
| 2026-05-05 21:04 | 40.84136 | -120.02287 | 36913 ft | 487 kts | 162° |
| 2026-05-05 21:04 | 40.77511 | -120.00398 | 36912 ft | 487 kts | 162° |
| 2026-05-05 21:05 | 40.69817 | -119.98207 | 36903 ft | 487 kts | 162° |
| 2026-05-05 21:05 | 40.63199 | -119.96326 | 36901 ft | 486 kts | 162° |
| 2026-05-05 21:06 | 40.57661 | -119.94758 | 36891 ft | 486 kts | 162° |
| 2026-05-05 21:06 | 40.51048 | -119.92888 | 36902 ft | 486 kts | 161° |
| 2026-05-05 21:07 | 40.44481 | -119.91031 | 36894 ft | 486 kts | 161° |
| 2026-05-05 21:07 | 40.37872 | -119.89165 | 36893 ft | 486 kts | 161° |
| 2026-05-05 21:08 | 40.31267 | -119.87308 | 36904 ft | 485 kts | 161° |
| 2026-05-05 21:08 | 40.24666 | -119.85464 | 36904 ft | 485 kts | 161° |
| 2026-05-05 21:09 | 40.18071 | -119.83624 | 36900 ft | 485 kts | 161° |
| 2026-05-05 21:09 | 40.11476 | -119.81782 | 36917 ft | 485 kts | 161° |
| 2026-05-05 21:10 | 40.04882 | -119.79926 | 36918 ft | 485 kts | 161° |
| 2026-05-05 21:10 | 39.98285 | -119.78081 | 36940 ft | 484 kts | 161° |
| 2026-05-05 21:11 | 39.91688 | -119.76259 | 36975 ft | 485 kts | 161° |
| 2026-05-05 21:11 | 39.85131 | -119.74443 | 36995 ft | 485 kts | 161° |
| 2026-05-05 21:12 | 39.78533 | -119.72611 | 37033 ft | 485 kts | 161° |
| 2026-05-05 21:12 | 39.71937 | -119.70788 | 37032 ft | 484 kts | 161° |
| 2026-05-05 21:13 | 39.65342 | -119.68971 | 37025 ft | 484 kts | 161° |
| 2026-05-05 21:13 | 39.58757 | -119.67120 | 37025 ft | 482 kts | 157° |
| 2026-05-05 21:14 | 39.52710 | -119.63875 | 37031 ft | 462 kts | 140° |
| 2026-05-05 21:14 | 39.47789 | -119.58830 | 37013 ft | 445 kts | 126° |
| 2026-05-05 21:15 | 39.43384 | -119.53204 | 37026 ft | 445 kts | 127° |
| 2026-05-05 21:15 | 39.38985 | -119.47637 | 36999 ft | 446 kts | 127° |
| 2026-05-05 21:16 | 39.34554 | -119.42035 | 36995 ft | 446 kts | 127° |
| 2026-05-05 21:16 | 39.30118 | -119.36437 | 36983 ft | 446 kts | 127° |
| 2026-05-05 21:17 | 39.25675 | -119.30846 | 36973 ft | 446 kts | 127° |
| 2026-05-05 21:17 | 39.21231 | -119.25262 | 36963 ft | 446 kts | 127° |
| 2026-05-05 21:18 | 39.16781 | -119.19677 | 36988 ft | 447 kts | 127° |
| 2026-05-05 21:18 | 39.12324 | -119.14096 | 36979 ft | 447 kts | 127° |
| 2026-05-05 21:19 | 39.07870 | -119.08514 | 36971 ft | 447 kts | 127° |
| 2026-05-05 21:19 | 39.03407 | -119.02940 | 36976 ft | 447 kts | 127° |
| 2026-05-05 21:20 | 38.98935 | -118.97376 | 36971 ft | 447 kts | 127° |
| 2026-05-05 21:20 | 38.94468 | -118.91812 | 36986 ft | 447 kts | 127° |
| 2026-05-05 21:21 | 38.89992 | -118.86248 | 36972 ft | 448 kts | 127° |
| 2026-05-05 21:21 | 38.85533 | -118.80736 | 36998 ft | 448 kts | 127° |
| 2026-05-05 21:22 | 38.81047 | -118.75190 | 36977 ft | 448 kts | 127° |
| 2026-05-05 21:22 | 38.76564 | -118.69655 | 36978 ft | 447 kts | 127° |
| 2026-05-05 21:23 | 38.72081 | -118.64129 | 36990 ft | 447 kts | 128° |
| 2026-05-05 21:23 | 38.67594 | -118.58618 | 36995 ft | 447 kts | 128° |
| 2026-05-05 21:24 | 38.63113 | -118.53116 | 37056 ft | 447 kts | 128° |
| 2026-05-05 21:24 | 38.58629 | -118.47604 | 37046 ft | 447 kts | 128° |
| 2026-05-05 21:25 | 38.54134 | -118.42104 | 37053 ft | 447 kts | 128° |
| 2026-05-05 21:25 | 38.49634 | -118.36628 | 37037 ft | 447 kts | 128° |
| 2026-05-05 21:26 | 38.45138 | -118.31159 | 37006 ft | 446 kts | 128° |
| 2026-05-05 21:26 | 38.40656 | -118.25698 | 36970 ft | 446 kts | 128° |
| 2026-05-05 21:27 | 38.36169 | -118.20242 | 36963 ft | 445 kts | 128° |
| 2026-05-05 21:27 | 38.31684 | -118.14801 | 36954 ft | 445 kts | 128° |
| 2026-05-05 21:28 | 38.27202 | -118.09377 | 36946 ft | 445 kts | 128° |
| 2026-05-05 21:28 | 38.22751 | -118.03991 | 36952 ft | 445 kts | 129° |
| 2026-05-05 21:29 | 38.18265 | -117.98581 | 36939 ft | 444 kts | 129° |
| 2026-05-05 21:29 | 38.13776 | -117.93182 | 36928 ft | 444 kts | 129° |
| 2026-05-05 21:30 | 38.09289 | -117.87789 | 36923 ft | 444 kts | 129° |
| 2026-05-05 21:30 | 38.04800 | -117.82403 | 36921 ft | 444 kts | 129° |
| 2026-05-05 21:31 | 38.00304 | -117.77024 | 36921 ft | 444 kts | 130° |
| 2026-05-05 21:31 | 37.95668 | -117.71802 | 36924 ft | 447 kts | 132° |
| 2026-05-05 21:32 | 37.90907 | -117.66732 | 36930 ft | 447 kts | 133° |
| 2026-05-05 21:32 | 37.86152 | -117.61655 | 36926 ft | 447 kts | 133° |
| 2026-05-05 21:33 | 37.81435 | -117.56538 | 36918 ft | 447 kts | 132° |
| 2026-05-05 21:33 | 37.76721 | -117.51418 | 36913 ft | 447 kts | 132° |
| 2026-05-05 21:34 | 37.71996 | -117.46306 | 36921 ft | 447 kts | 133° |
| 2026-05-05 21:34 | 37.67294 | -117.41230 | 36908 ft | 448 kts | 133° |
| 2026-05-05 21:35 | 37.62518 | -117.36092 | 36922 ft | 448 kts | 133° |
| 2026-05-05 21:35 | 37.57772 | -117.30997 | 36903 ft | 448 kts | 134° |
| 2026-05-05 21:36 | 37.53054 | -117.25931 | 36894 ft | 449 kts | 134° |
| 2026-05-05 21:36 | 37.48298 | -117.20831 | 36883 ft | 450 kts | 134° |
| 2026-05-05 21:37 | 37.43177 | -117.16209 | 36894 ft | 454 kts | 140° |
| 2026-05-05 21:37 | 37.37974 | -117.11692 | 36884 ft | 455 kts | 140° |
| 2026-05-05 21:38 | 37.35371 | -117.09434 | 36646 ft | 455 kts | 143° |
| 2026-05-05 21:38 | 37.32773 | -117.07177 | 36860 ft | 455 kts | 140° |
| 2026-05-05 21:38 | 37.27571 | -117.02668 | 36862 ft | 454 kts | 140° |
| 2026-05-05 21:39 | 37.22368 | -116.98166 | 36859 ft | 454 kts | 140° |
| 2026-05-05 21:39 | 37.17167 | -116.93670 | 36859 ft | 454 kts | 140° |
| 2026-05-05 21:40 | 37.11993 | -116.89206 | 36859 ft | 454 kts | 140° |
| 2026-05-05 21:40 | 37.06780 | -116.84721 | 36871 ft | 454 kts | 140° |
| 2026-05-05 21:41 | 37.01569 | -116.80237 | 36874 ft | 455 kts | 141° |
| 2026-05-05 21:41 | 36.96304 | -116.75711 | 36544 ft | 467 kts | 141° |
| 2026-05-05 21:42 | 36.93610 | -116.73394 | 36233 ft | 471 kts | 140° |
| 2026-05-05 21:42 | 36.90913 | -116.71083 | 35526 ft | 469 kts | 139° |
| 2026-05-05 21:42 | 36.88236 | -116.68801 | 34842 ft | 465 kts | 139° |
| 2026-05-05 21:42 | 36.85582 | -116.66546 | 34060 ft | 458 kts | 138° |
| 2026-05-05 21:43 | 36.82967 | -116.64321 | 33022 ft | 452 kts | 137° |
| 2026-05-05 21:43 | 36.80391 | -116.62129 | 32258 ft | 440 kts | 137° |
| 2026-05-05 21:43 | 36.77911 | -116.60030 | 31795 ft | 425 kts | 137° |
| 2026-05-05 21:43 | 36.75481 | -116.57962 | 31229 ft | 422 kts | 136° |
| 2026-05-05 21:44 | 36.73070 | -116.55899 | 30687 ft | 419 kts | 137° |
| 2026-05-05 21:44 | 36.70672 | -116.53848 | 30142 ft | 417 kts | 137° |
| 2026-05-05 21:44 | 36.68316 | -116.51837 | 29561 ft | 415 kts | 137° |
| 2026-05-05 21:44 | 36.65971 | -116.49780 | 29022 ft | 407 kts | 133° |
| 2026-05-05 21:45 | 36.63927 | -116.47436 | 28514 ft | 393 kts | 125° |
| 2026-05-05 21:45 | 36.62141 | -116.44900 | 28030 ft | 387 kts | 124° |
| 2026-05-05 21:45 | 36.60374 | -116.42393 | 27530 ft | 383 kts | 124° |
| 2026-05-05 21:45 | 36.58618 | -116.39916 | 27049 ft | 380 kts | 125° |
| 2026-05-05 21:46 | 36.56875 | -116.37464 | 26586 ft | 377 kts | 125° |
| 2026-05-05 21:46 | 36.55145 | -116.35032 | 26122 ft | 374 kts | 126° |
| 2026-05-05 21:46 | 36.53430 | -116.32617 | 25681 ft | 371 kts | 126° |
| 2026-05-05 21:46 | 36.51729 | -116.30219 | 25237 ft | 369 kts | 126° |
| 2026-05-05 21:47 | 36.50042 | -116.27838 | 24805 ft | 366 kts | 127° |
| 2026-05-05 21:47 | 36.48366 | -116.25475 | 24371 ft | 363 kts | 127° |
| 2026-05-05 21:47 | 36.46699 | -116.23131 | 23953 ft | 361 kts | 127° |
| 2026-05-05 21:47 | 36.45044 | -116.20805 | 23526 ft | 358 kts | 128° |
| 2026-05-05 21:48 | 36.43402 | -116.18494 | 23055 ft | 356 kts | 128° |
| 2026-05-05 21:48 | 36.41774 | -116.16201 | 22621 ft | 352 kts | 128° |
| 2026-05-05 21:48 | 36.40163 | -116.13934 | 22215 ft | 348 kts | 128° |
| 2026-05-05 21:48 | 36.38563 | -116.11691 | 21802 ft | 346 kts | 128° |
| 2026-05-05 21:49 | 36.36974 | -116.09467 | 21387 ft | 343 kts | 128° |
| 2026-05-05 21:49 | 36.35395 | -116.07256 | 20962 ft | 342 kts | 129° |
| 2026-05-05 21:49 | 36.33821 | -116.05050 | 20539 ft | 342 kts | 129° |
| 2026-05-05 21:49 | 36.32244 | -116.02836 | 20103 ft | 342 kts | 129° |
| 2026-05-05 21:50 | 36.30670 | -116.00629 | 19685 ft | 341 kts | 129° |
| 2026-05-05 21:50 | 36.29096 | -115.98431 | 19254 ft | 340 kts | 129° |
| 2026-05-05 21:50 | 36.27535 | -115.96255 | 18969 ft | 335 kts | 129° |
| 2026-05-05 21:50 | 36.26018 | -115.94142 | 18731 ft | 330 kts | 129° |
| 2026-05-05 21:51 | 36.24510 | -115.92009 | 18496 ft | 328 kts | 127° |
| 2026-05-05 21:51 | 36.23074 | -115.89825 | 18260 ft | 326 kts | 126° |
| 2026-05-05 21:51 | 36.21687 | -115.87610 | 18062 ft | 325 kts | 126° |
| 2026-05-05 21:51 | 36.20318 | -115.85388 | 17742 ft | 324 kts | 125° |
| 2026-05-05 21:52 | 36.17579 | -115.80981 | 17170 ft | 322 kts | 126° |
| 2026-05-05 21:52 | 36.16204 | -115.78792 | 16874 ft | 322 kts | 126° |
| 2026-05-05 21:52 | 36.14830 | -115.76612 | 16541 ft | 320 kts | 125° |
| 2026-05-05 21:53 | 36.13665 | -115.74288 | 16232 ft | 317 kts | 113° |
| 2026-05-05 21:53 | 36.12855 | -115.71767 | 15916 ft | 315 kts | 109° |
| 2026-05-05 21:53 | 36.12087 | -115.69237 | 15600 ft | 314 kts | 109° |
| 2026-05-05 21:53 | 36.11314 | -115.66716 | 15282 ft | 313 kts | 108° |
| 2026-05-05 21:54 | 36.10539 | -115.64206 | 14973 ft | 312 kts | 109° |
| 2026-05-05 21:54 | 36.09764 | -115.61703 | 14654 ft | 311 kts | 109° |
| 2026-05-05 21:54 | 36.08990 | -115.59207 | 14341 ft | 311 kts | 109° |
| 2026-05-05 21:54 | 36.08219 | -115.56716 | 14027 ft | 310 kts | 110° |
| 2026-05-05 21:55 | 36.07450 | -115.54229 | 13714 ft | 309 kts | 109° |
| 2026-05-05 21:55 | 36.06685 | -115.51748 | 13380 ft | 308 kts | 110° |
| 2026-05-05 21:55 | 36.05921 | -115.49282 | 13065 ft | 306 kts | 110° |
| 2026-05-05 21:55 | 36.05159 | -115.46823 | 12750 ft | 306 kts | 109° |
| 2026-05-05 21:56 | 36.04408 | -115.44398 | 12443 ft | 306 kts | 110° |
| 2026-05-05 21:56 | 36.03651 | -115.41949 | 12135 ft | 304 kts | 109° |
| 2026-05-05 21:56 | 36.02897 | -115.39511 | 11835 ft | 303 kts | 109° |
| 2026-05-05 21:57 | 36.01638 | -115.34827 | 11249 ft | 300 kts | 97° |
| 2026-05-05 21:57 | 36.01469 | -115.32306 | 10952 ft | 298 kts | 92° |
| 2026-05-05 21:57 | 36.01389 | -115.30587 | 10767 ft | 297 kts | 92° |
| 2026-05-05 21:57 | 36.01228 | -115.27273 | 10380 ft | 296 kts | 92° |
| 2026-05-05 21:58 | 36.01103 | -115.24745 | 10081 ft | 294 kts | 93° |
| 2026-05-05 21:58 | 36.00977 | -115.22228 | 9785 ft | 293 kts | 93° |
| 2026-05-05 21:58 | 36.00852 | -115.19716 | 9489 ft | 291 kts | 93° |
| 2026-05-05 21:58 | 36.00729 | -115.17308 | 9397 ft | 279 kts | 92° |
| 2026-05-05 21:59 | 36.00608 | -115.14966 | 9284 ft | 268 kts | 93° |
| 2026-05-05 21:59 | 36.00491 | -115.12689 | 9168 ft | 257 kts | 93° |
| 2026-05-05 21:59 | 36.00384 | -115.10557 | 9072 ft | 248 kts | 93° |
| 2026-05-05 21:59 | 36.00277 | -115.08433 | 8812 ft | 246 kts | 92° |
| 2026-05-05 22:00 | 36.00171 | -115.06326 | 8572 ft | 245 kts | 93° |
| 2026-05-05 22:00 | 36.00065 | -115.04231 | 8342 ft | 244 kts | 93° |
| 2026-05-05 22:00 | 35.99960 | -115.02146 | 8107 ft | 243 kts | 93° |
| 2026-05-05 22:00 | 35.99879 | -115.00059 | 7832 ft | 244 kts | 92° |
| 2026-05-05 22:01 | 35.99853 | -114.97967 | 7481 ft | 243 kts | 91° |
| 2026-05-05 22:01 | 35.99847 | -114.95884 | 7186 ft | 242 kts | 91° |
| 2026-05-05 22:01 | 35.99909 | -114.93819 | 6877 ft | 241 kts | 78° |
| 2026-05-05 22:01 | 36.00653 | -114.91990 | 6559 ft | 240 kts | 48° |
| 2026-05-05 22:02 | 36.01959 | -114.90730 | 6252 ft | 239 kts | 28° |
| 2026-05-05 22:02 | 36.03490 | -114.89978 | 5932 ft | 237 kts | 10° |
| 2026-05-05 22:02 | 36.05118 | -114.89858 | 5642 ft | 233 kts | 351° |
| 2026-05-05 22:02 | 36.06646 | -114.90405 | 5376 ft | 227 kts | 330° |
| 2026-05-05 22:03 | 36.07904 | -114.91529 | 5124 ft | 221 kts | 311° |
| 2026-05-05 22:03 | 36.08767 | -114.93064 | 4879 ft | 215 kts | 292° |
| 2026-05-05 22:03 | 36.09177 | -114.94812 | 4611 ft | 210 kts | 275° |
| 2026-05-05 22:03 | 36.09131 | -114.96576 | 4488 ft | 201 kts | 258° |
| 2026-05-05 22:04 | 36.08687 | -114.98173 | 4258 ft | 194 kts | 244° |
| 2026-05-05 22:04 | 36.08121 | -114.99650 | 4016 ft | 188 kts | 244° |
| 2026-05-05 22:04 | 36.07577 | -115.01103 | 3755 ft | 184 kts | 248° |
| 2026-05-05 22:04 | 36.07358 | -115.02634 | 3641 ft | 177 kts | 269° |
| 2026-05-05 22:05 | 36.07361 | -115.04113 | 3452 ft | 168 kts | 269° |
| 2026-05-05 22:05 | 36.07364 | -115.05517 | 3276 ft | 156 kts | 269° |
| 2026-05-05 22:05 | 36.07366 | -115.06810 | 3067 ft | 150 kts | 269° |
| 2026-05-05 22:05 | 36.07366 | -115.08094 | 2854 ft | 148 kts | 269° |
| 2026-05-05 22:06 | 36.07366 | -115.09365 | 2640 ft | 148 kts | 269° |
| 2026-05-05 22:06 | 36.07365 | -115.10632 | 2430 ft | 147 kts | 269° |
| 2026-05-05 22:06 | 36.07361 | -115.11899 | 2212 ft | 148 kts | 270° |
| 2026-05-05 22:06 | 36.07361 | -115.13162 | 2081 ft | 144 kts | 269° |
| 2026-05-05 22:07 | 36.07364 | -115.14217 | 2109 ft | 97 kts | 270° |
| 2026-05-05 22:07 | 36.07384 | -115.14810 | 2130 ft | 31 kts | 283° |
| 2026-05-05 22:07 | 36.07446 | -115.15002 | 2128 ft | 23 kts | 298° |
| 2026-05-05 22:07 | 36.07545 | -115.15138 | 2130 ft | 18 kts | 331° |
| 2026-05-05 22:08 | 36.07658 | -115.15204 | 2132 ft | 18 kts | 335° |
| 2026-05-05 22:08 | 36.07764 | -115.15264 | 2134 ft | 10 kts | 338° |
| 2026-05-05 22:08 | 36.07805 | -115.15224 | 2134 ft | 9 kts | 74° |
| 2026-05-05 22:08 | 36.07805 | -115.15134 | 2130 ft | 12 kts | 91° |
| 2026-05-05 22:09 | 36.07800 | -115.15022 | 2127 ft | 16 kts | 93° |
| 2026-05-05 22:09 | 36.07791 | -115.14871 | 2122 ft | 20 kts | 95° |
| 2026-05-05 22:09 | 36.07777 | -115.14672 | 2111 ft | 27 kts | 94° |
| 2026-05-05 22:09 | 36.07760 | -115.14429 | 2105 ft | 30 kts | 94° |
| 2026-05-05 22:10 | 36.07755 | -115.14211 | 2098 ft | 8 kts | 92° |
| 2026-05-05 22:10 | 36.07773 | -115.14161 | 2096 ft | 7 kts | 36° |
| 2026-05-05 22:10 | 36.07827 | -115.14154 | 2094 ft | 8 kts | 359° |
| 2026-05-05 22:10 | 36.07881 | -115.14155 | 2094 ft | 8 kts | 359° |
| 2026-05-05 22:11 | 36.07935 | -115.14156 | 2095 ft | 7 kts | 359° |
| 2026-05-05 22:11 | 36.07983 | -115.14156 | 2094 ft | 8 kts | 0° |
| 2026-05-05 22:11 | 36.08038 | -115.14155 | 2093 ft | 8 kts | 0° |
| 2026-05-05 22:11 | 36.08094 | -115.14156 | 2092 ft | 8 kts | 360° |
| 2026-05-05 22:12 | 36.08140 | -115.14124 | 2090 ft | 8 kts | 54° |
| 2026-05-05 22:12 | 36.08135 | -115.14069 | 2090 ft | 6 kts | 127° |
| 2026-05-05 22:12 | 36.08115 | -115.14046 | 2091 ft | 0 kts | 137° |
| 2026-05-05 22:16 | 36.08112 | -115.14042 | 2091 ft | 1 kts | 136° |
| 2026-05-05 22:16 | 36.08108 | -115.14037 | 2091 ft | 1 kts | 136° |
| 2026-05-05 22:16 | 36.08104 | -115.14033 | 2092 ft | 0 kts | 135° |
| 2026-05-05 22:17 | 36.08097 | -115.14025 | 2092 ft | 2 kts | 135° |
| 2026-05-05 22:17 | 36.08093 | -115.14020 | 2092 ft | 0 kts | 135° |